createdAt,value
2022-08-21T00:01:22.340Z,83.49
2022-08-21T00:04:48.230Z,83.73
2022-08-21T00:08:22.230Z,80.78
2022-08-21T00:11:45.232Z,82.48
2022-08-21T00:15:08.550Z,75.11
2022-08-21T00:18:32.213Z,75.10
2022-08-21T00:21:56.177Z,74.81
2022-08-21T00:25:24.379Z,72.25
2022-08-21T00:28:50.206Z,74.83
2022-08-21T00:32:13.315Z,76.22
2022-08-21T00:35:39.187Z,73.33
2022-08-21T00:39:02.285Z,74.34
2022-08-21T00:42:29.199Z,73.65
2022-08-21T00:45:53.494Z,72.03
2022-08-21T00:49:16.244Z,67.04
2022-08-21T00:52:41.413Z,64.81
2022-08-21T00:56:04.204Z,64.96
2022-08-21T00:59:27.344Z,64.62
2022-08-21T01:02:51.289Z,65.00
2022-08-21T01:06:15.215Z,63.23
2022-08-21T01:09:39.217Z,62.78
2022-08-21T01:13:02.303Z,64.24
2022-08-21T01:16:25.240Z,67.00
2022-08-21T01:19:48.250Z,65.23
2022-08-21T01:23:12.331Z,60.32
2022-08-21T01:26:37.250Z,58.57
2022-08-21T01:30:07.273Z,59.73
2022-08-21T01:33:31.229Z,58.58
2022-08-21T01:36:54.229Z,58.75
2022-08-21T01:40:17.294Z,59.72
2022-08-21T01:43:39.358Z,61.67
2022-08-21T01:47:04.282Z,64.74
2022-08-21T01:50:29.372Z,65.16
2022-08-21T01:53:52.242Z,66.64
2022-08-21T01:57:15.264Z,72.05
2022-08-21T02:00:38.277Z,75.08
2022-08-21T02:04:02.284Z,71.12
2022-08-21T02:07:25.259Z,71.24
2022-08-21T02:10:50.266Z,70.43
2022-08-21T02:14:13.245Z,68.18
2022-08-21T02:17:36.275Z,67.27
2022-08-21T02:21:04.254Z,70.79
2022-08-21T02:24:21.264Z,68.33
2022-08-21T02:27:44.338Z,69.86
2022-08-21T02:31:08.299Z,70.63
2022-08-21T02:34:31.282Z,67.65
2022-08-21T02:38:01.353Z,68.90
2022-08-21T02:41:26.366Z,68.08
2022-08-21T02:44:49.242Z,67.03
2022-08-21T02:48:13.308Z,65.64
2022-08-21T02:51:36.267Z,64.38
2022-08-21T02:54:58.323Z,65.95
2022-08-21T02:58:22.235Z,66.41
2022-08-21T03:01:46.324Z,66.81
2022-08-21T03:05:10.271Z,66.47
2022-08-21T03:08:33.387Z,65.86
2022-08-21T03:11:56.299Z,65.28
2022-08-21T03:15:20.339Z,66.71
2022-08-21T03:18:43.261Z,65.24
2022-08-21T03:22:06.356Z,66.76
2022-08-21T03:25:39.946Z,66.18
2022-08-21T03:29:06.303Z,68.18
2022-08-21T03:32:30.288Z,68.82
2022-08-21T03:35:54.305Z,68.85
2022-08-21T03:39:18.277Z,69.74
2022-08-21T03:42:42.307Z,69.82
2022-08-21T03:46:05.306Z,67.75
2022-08-21T03:49:28.404Z,69.29
2022-08-21T03:52:51.480Z,73.51
2022-08-21T03:56:14.248Z,74.22
2022-08-21T03:59:37.451Z,73.98
2022-08-21T04:03:01.288Z,71.47
2022-08-21T04:06:25.338Z,73.92
2022-08-21T04:09:48.332Z,73.33
2022-08-21T04:13:11.329Z,73.52
2022-08-21T04:16:34.286Z,74.10
2022-08-21T04:19:58.310Z,75.40
2022-08-21T04:23:24.269Z,76.98
2022-08-21T04:26:48.291Z,75.04
2022-08-21T04:30:11.358Z,75.30
2022-08-21T04:33:35.285Z,72.52
2022-08-21T04:36:59.349Z,73.49
2022-08-21T04:40:24.329Z,75.04
2022-08-21T04:43:47.326Z,74.97
2022-08-21T04:47:10.304Z,76.25
2022-08-21T04:50:33.366Z,77.68
2022-08-21T04:54:04.309Z,79.38
2022-08-21T04:57:47.392Z,80.75
2022-08-21T05:01:13.403Z,81.15
2022-08-21T05:04:37.368Z,80.52
2022-08-21T05:08:01.286Z,79.65
2022-08-21T05:11:24.378Z,80.39
2022-08-21T05:14:51.326Z,81.04
2022-08-21T05:18:15.347Z,81.35
2022-08-21T05:21:39.315Z,81.63
2022-08-21T05:25:01.336Z,81.13
2022-08-21T05:28:27.292Z,81.89
2022-08-21T05:31:51.358Z,83.15
2022-08-21T05:35:14.318Z,83.95
2022-08-21T05:38:38.343Z,83.36
2022-08-21T05:42:01.320Z,82.92
2022-08-21T05:45:41.983Z,84.30
2022-08-21T05:49:06.343Z,84.48
2022-08-21T05:52:34.338Z,84.86
2022-08-21T05:55:57.310Z,84.47
2022-08-21T05:59:22.320Z,84.79
2022-08-21T06:02:45.351Z,86.13
2022-08-21T06:06:08.310Z,87.00
2022-08-21T06:09:31.375Z,88.18
2022-08-21T06:12:54.346Z,88.91
2022-08-21T06:16:26.361Z,90.33
2022-08-21T06:19:49.344Z,91.34
2022-08-21T06:23:12.328Z,90.22
2022-08-21T06:26:35.470Z,90.44
2022-08-21T06:29:58.373Z,91.69
2022-08-21T06:33:21.382Z,91.20
2022-08-21T06:36:44.338Z,90.60
2022-08-21T06:40:12.463Z,90.07
2022-08-21T06:43:39.866Z,90.71
2022-08-21T06:47:03.382Z,90.71
2022-08-21T06:50:26.375Z,90.69
2022-08-21T06:53:49.406Z,91.18
2022-08-21T06:57:12.417Z,91.70
2022-08-21T07:00:35.381Z,92.08
2022-08-21T07:03:58.396Z,92.90
2022-08-21T07:07:22.709Z,93.32
2022-08-21T07:10:46.595Z,93.23
2022-08-21T07:14:09.388Z,94.00
2022-08-21T07:17:35.605Z,93.90
2022-08-21T07:20:58.591Z,94.21
2022-08-21T07:24:21.623Z,95.26
2022-08-21T07:27:44.441Z,95.09
2022-08-21T07:31:08.366Z,94.96
2022-08-21T07:34:32.391Z,95.64
2022-08-21T07:37:56.368Z,96.05
2022-08-21T07:41:29.439Z,96.53
2022-08-21T07:44:53.180Z,96.91
2022-08-21T07:48:19.509Z,97.12
2022-08-21T07:51:43.363Z,97.39
2022-08-21T07:55:06.889Z,96.69
2022-08-21T07:58:31.379Z,96.84
2022-08-21T08:01:54.431Z,97.48
2022-08-21T08:05:18.393Z,98.33
2022-08-21T08:08:41.431Z,98.15
2022-08-21T08:12:04.400Z,99.21
2022-08-21T08:15:29.404Z,99.13
2022-08-21T08:18:53.432Z,98.84
2022-08-21T08:22:16.452Z,99.91
2022-08-21T08:25:40.435Z,99.80
2022-08-21T08:29:04.407Z,99.56
2022-08-21T08:32:27.413Z,99.52
2022-08-21T08:35:50.465Z,99.22
2022-08-21T08:39:13.411Z,99.59
2022-08-21T08:42:51.469Z,100.00
2022-08-21T08:46:15.444Z,99.40
2022-08-21T08:49:51.466Z,99.59
2022-08-21T08:53:16.428Z,97.55
2022-08-21T08:56:42.433Z,97.49
2022-08-21T09:00:06.442Z,98.18
2022-08-21T09:03:31.449Z,98.36
2022-08-21T09:06:58.550Z,99.89
2022-08-21T09:10:26.441Z,99.93
2022-08-21T09:13:52.430Z,99.16
2022-08-21T09:17:18.458Z,98.92
2022-08-21T09:20:47.457Z,99.83
2022-08-21T09:24:19.481Z,98.84
2022-08-21T09:27:42.455Z,98.44
2022-08-21T09:31:07.433Z,98.38
2022-08-21T09:34:40.432Z,98.52
2022-08-21T09:38:14.483Z,99.15
2022-08-21T09:41:47.475Z,99.91
2022-08-21T09:45:21.038Z,100.00
2022-08-21T09:48:39.480Z,100.00
2022-08-21T09:52:07.453Z,100.00
2022-08-21T09:55:57.466Z,100.00
2022-08-21T09:59:41.442Z,100.00
2022-08-21T10:03:05.626Z,100.00
2022-08-21T10:06:39.432Z,100.00
2022-08-21T10:10:14.545Z,100.00
2022-08-21T10:13:48.440Z,100.00
2022-08-21T10:17:28.505Z,100.00
2022-08-21T10:20:54.435Z,100.00
2022-08-21T10:24:36.456Z,100.00
2022-08-21T10:28:13.727Z,100.00
2022-08-21T10:31:38.456Z,100.00
2022-08-21T10:35:04.460Z,100.00
2022-08-21T10:38:48.656Z,100.00
2022-08-21T10:42:29.450Z,100.00
2022-08-21T10:45:55.508Z,100.00
2022-08-21T10:49:30.486Z,100.00
2022-08-21T10:53:02.492Z,100.00
2022-08-21T10:56:48.514Z,100.00
2022-08-21T11:00:14.493Z,100.00
2022-08-21T11:03:51.458Z,100.00
2022-08-21T11:07:35.582Z,100.00
2022-08-21T11:11:02.493Z,100.00
2022-08-21T11:14:50.389Z,100.00
2022-08-21T11:18:18.491Z,100.00
2022-08-21T11:21:44.479Z,100.00
2022-08-21T11:25:33.382Z,100.00
2022-08-21T11:29:05.517Z,100.00
2022-08-21T11:32:34.499Z,100.00
2022-08-21T11:35:57.490Z,100.00
2022-08-21T11:39:20.501Z,100.00
2022-08-21T11:42:43.495Z,100.00
2022-08-21T11:46:08.631Z,100.00
2022-08-21T11:49:50.480Z,100.00
2022-08-21T11:53:37.626Z,100.00
2022-08-21T11:57:08.498Z,100.00
2022-08-21T12:00:40.556Z,100.00
2022-08-21T12:04:14.484Z,100.00
2022-08-21T12:07:46.556Z,100.00
2022-08-21T12:11:24.487Z,100.00
2022-08-21T12:14:59.503Z,100.00
2022-08-21T12:18:41.477Z,100.00
2022-08-21T12:22:04.562Z,100.00
2022-08-21T12:25:32.483Z,100.00
2022-08-21T12:28:55.510Z,100.00
2022-08-21T12:32:20.518Z,100.00
2022-08-21T12:36:02.542Z,100.00
2022-08-21T12:39:30.541Z,100.00
2022-08-21T12:42:58.843Z,100.00
2022-08-21T12:46:22.531Z,100.00
2022-08-21T12:49:48.496Z,100.00
2022-08-21T12:53:20.461Z,100.00
2022-08-21T12:56:48.507Z,100.00
2022-08-21T13:00:23.539Z,100.00
2022-08-21T13:03:46.539Z,100.00
2022-08-21T13:07:10.534Z,100.00
2022-08-21T13:10:36.517Z,100.00
2022-08-21T13:14:02.854Z,100.00
2022-08-21T13:17:29.533Z,100.00
2022-08-21T13:20:56.517Z,100.00
2022-08-21T13:24:42.476Z,100.00
2022-08-21T13:28:35.519Z,100.00
2022-08-21T13:32:03.543Z,100.00
2022-08-21T13:35:28.518Z,100.00
2022-08-21T13:38:51.548Z,100.00
2022-08-21T13:42:16.572Z,100.00
2022-08-21T13:45:41.576Z,100.00
2022-08-21T13:48:58.084Z,100.00
2022-08-21T13:52:23.541Z,100.00
2022-08-21T13:55:51.509Z,100.00
2022-08-21T13:59:15.566Z,100.00
2022-08-21T14:02:39.557Z,100.00
2022-08-21T14:05:56.553Z,100.00
2022-08-21T14:09:24.570Z,100.00
2022-08-21T14:12:56.515Z,100.00
2022-08-21T14:16:26.584Z,100.00
2022-08-21T14:19:54.513Z,100.00
2022-08-21T14:23:17.589Z,100.00
2022-08-21T14:26:40.552Z,100.00
2022-08-21T14:30:03.599Z,100.00
2022-08-21T14:33:27.551Z,100.00
2022-08-21T14:36:50.612Z,100.00
2022-08-21T14:40:13.719Z,100.00
2022-08-21T14:43:36.598Z,100.00
2022-08-21T14:46:59.550Z,100.00
2022-08-21T14:50:22.595Z,100.00
2022-08-21T14:53:46.553Z,100.00
2022-08-21T14:57:10.601Z,100.00
2022-08-21T15:00:35.754Z,100.00
2022-08-21T15:04:00.589Z,100.00
2022-08-21T15:07:23.548Z,100.00
2022-08-21T15:11:10.006Z,100.00
2022-08-21T15:14:37.589Z,100.00
2022-08-21T15:18:00.657Z,100.00
2022-08-21T15:21:24.621Z,100.00
2022-08-21T15:24:47.569Z,100.00
2022-08-21T15:28:11.566Z,100.00
2022-08-21T15:31:35.612Z,100.00
2022-08-21T15:34:58.615Z,100.00
2022-08-21T15:38:21.626Z,100.00
2022-08-21T15:41:43.582Z,100.00
2022-08-21T15:45:06.600Z,100.00
2022-08-21T15:48:29.604Z,100.00
2022-08-21T15:51:53.608Z,100.00
2022-08-21T15:55:17.577Z,100.00
2022-08-21T15:58:40.612Z,100.00
2022-08-21T16:02:05.692Z,100.00
2022-08-21T16:05:28.558Z,100.00
2022-08-21T16:08:51.632Z,100.00
2022-08-21T16:12:15.575Z,100.00
2022-08-21T16:15:38.627Z,100.00
2022-08-21T16:19:01.589Z,100.00
2022-08-21T16:22:24.589Z,100.00
2022-08-21T16:25:49.584Z,100.00
2022-08-21T16:29:12.589Z,100.00
2022-08-21T16:32:36.593Z,100.00
2022-08-21T16:36:00.598Z,100.00
2022-08-21T16:39:23.647Z,100.00
2022-08-21T16:42:46.567Z,100.00
2022-08-21T16:46:09.646Z,100.00
2022-08-21T16:49:33.600Z,100.00
2022-08-21T16:52:57.764Z,100.00
2022-08-21T16:56:21.725Z,100.00
2022-08-21T16:59:45.644Z,100.00
2022-08-21T17:03:10.616Z,100.00
2022-08-21T17:06:33.638Z,100.00
2022-08-21T17:09:56.635Z,100.00
2022-08-21T17:13:20.633Z,100.00
2022-08-21T17:16:43.650Z,100.00
2022-08-21T17:20:16.800Z,100.00
2022-08-21T17:23:39.636Z,100.00
2022-08-21T17:27:04.674Z,100.00
2022-08-21T17:30:28.734Z,100.00
2022-08-21T17:33:58.652Z,100.00
2022-08-21T17:37:21.607Z,100.00
2022-08-21T17:40:39.652Z,100.00
2022-08-21T17:44:03.665Z,100.00
2022-08-21T17:47:28.634Z,100.00
2022-08-21T17:50:51.653Z,100.00
2022-08-21T17:54:08.268Z,100.00
2022-08-21T17:57:27.674Z,100.00
2022-08-21T18:00:50.691Z,100.00
2022-08-21T18:04:13.677Z,100.00
2022-08-21T18:07:38.631Z,100.00
2022-08-21T18:11:02.714Z,100.00
2022-08-21T18:14:27.617Z,100.00
2022-08-21T18:17:51.678Z,100.00
2022-08-21T18:21:14.637Z,100.00
2022-08-21T18:24:37.687Z,100.00
2022-08-21T18:28:01.648Z,100.00
2022-08-21T18:31:25.666Z,100.00
2022-08-21T18:34:50.642Z,100.00
2022-08-21T18:38:13.679Z,100.00
2022-08-21T18:41:37.703Z,100.00
2022-08-21T18:45:02.685Z,100.00
2022-08-21T18:48:29.436Z,100.00
2022-08-21T18:51:52.742Z,100.00
2022-08-21T18:55:16.674Z,100.00
2022-08-21T18:58:39.667Z,100.00
2022-08-21T19:02:02.732Z,100.00
2022-08-21T19:05:25.677Z,100.00
2022-08-21T19:08:50.678Z,100.00
2022-08-21T19:12:14.776Z,100.00
2022-08-21T19:15:37.719Z,100.00
2022-08-21T19:19:02.649Z,100.00
2022-08-21T19:22:25.687Z,100.00
2022-08-21T19:25:51.816Z,100.00
2022-08-21T19:29:16.690Z,100.00
2022-08-21T19:32:39.748Z,100.00
2022-08-21T19:36:06.717Z,98.33
2022-08-21T19:39:31.693Z,100.00
2022-08-21T19:42:55.777Z,100.00
2022-08-21T19:46:18.677Z,100.00
2022-08-21T19:49:42.695Z,100.00
2022-08-21T19:53:12.029Z,100.00
2022-08-21T19:56:36.777Z,96.23
2022-08-21T20:00:00.666Z,98.05
2022-08-21T20:03:24.710Z,100.00
2022-08-21T20:06:47.662Z,100.00
2022-08-21T20:10:10.723Z,100.00
2022-08-21T20:13:33.690Z,100.00
2022-08-21T20:16:56.739Z,100.00
2022-08-21T20:20:19.686Z,100.00
2022-08-21T20:23:48.924Z,99.91
2022-08-21T20:27:12.686Z,95.56
2022-08-21T20:30:35.724Z,93.73
2022-08-21T20:33:58.708Z,92.31
2022-08-21T20:37:35.874Z,89.72
2022-08-21T20:41:09.982Z,85.60
2022-08-21T20:44:46.829Z,89.28
2022-08-21T20:48:16.710Z,89.10
2022-08-21T20:51:43.695Z,89.98
2022-08-21T20:55:16.677Z,90.46
2022-08-21T20:58:38.747Z,91.24
2022-08-21T21:02:01.712Z,90.72
2022-08-21T21:05:27.738Z,92.21
2022-08-21T21:09:02.705Z,91.69
2022-08-21T21:12:30.718Z,90.18
2022-08-21T21:15:53.707Z,91.35
2022-08-21T21:19:20.943Z,90.97
2022-08-21T21:22:50.712Z,89.96
2022-08-21T21:26:31.891Z,88.80
2022-08-21T21:30:02.694Z,92.45
2022-08-21T21:33:24.757Z,93.58
2022-08-21T21:36:56.145Z,93.96
2022-08-21T21:40:27.760Z,93.09
2022-08-21T21:43:56.688Z,92.92
2022-08-21T21:47:31.763Z,92.43
2022-08-21T21:51:24.693Z,93.90
2022-08-21T21:54:54.764Z,93.99
2022-08-21T21:58:37.725Z,94.30
2022-08-21T22:02:10.745Z,94.00
2022-08-21T22:05:51.735Z,93.40
2022-08-21T22:09:26.726Z,92.58
2022-08-21T22:12:58.752Z,94.56
2022-08-21T22:16:32.754Z,94.84
2022-08-21T22:19:55.722Z,94.76
2022-08-21T22:23:20.722Z,94.93
2022-08-21T22:26:54.765Z,94.97
2022-08-21T22:30:20.725Z,92.74
2022-08-21T22:33:43.767Z,92.18
2022-08-21T22:37:10.783Z,90.38
2022-08-21T22:40:51.763Z,90.80
2022-08-21T22:44:15.776Z,89.67
2022-08-21T22:47:57.764Z,89.02
2022-08-21T22:51:22.784Z,87.04
2022-08-21T22:54:54.725Z,86.97
2022-08-21T22:58:19.790Z,85.43
2022-08-21T23:01:42.737Z,83.25
2022-08-21T23:05:09.731Z,83.89
2022-08-21T23:08:44.252Z,81.86
2022-08-21T23:12:21.079Z,82.12
2022-08-21T23:15:47.738Z,82.35
2022-08-21T23:19:15.799Z,83.98
2022-08-21T23:22:58.859Z,84.73
2022-08-21T23:26:22.860Z,85.05
2022-08-21T23:30:09.749Z,84.03
2022-08-21T23:33:34.176Z,84.48
2022-08-21T23:41:12.796Z,81.36
2022-08-21T23:44:44.777Z,78.03
2022-08-21T23:48:19.769Z,76.49
2022-08-21T23:51:59.753Z,76.30
2022-08-21T23:55:36.805Z,77.56
2022-08-21T23:59:04.773Z,77.88
